KSFB/SFB METAR and TAF weather

Enter ICAO airport designator
Station Type Date Time Source
KSFB METAR 2018/12/15 03:53 UTC NOAA

KSFB 150353Z AUTO 04003KT 10SM FEW075 SCT090 BKN110 19/18 A2999 RMK AO2 LTG DSNT W RAB17E26 SLP154 P0000 T01890183


Station Type Date Time Source
KSFB Decoded METAR 2018/12/15 03:53 UTC NOAA

ORLANDO SANFORD AIRPORT, FL, United States (KSFB) 28-47N 081-15W
Dec 14, 2018 - 10:53 PM EST / 2018.12.15 0353 UTC
Wind: from the NE (040 degrees) at 3 MPH (3 KT):0
Visibility: 10 mile(s):0
Sky conditions: mostly cloudy
Weather: Lightning observed
Precipitation last hour: A trace
Temperature: 66.0 F (18.9 C)
Dew Point: 64.9 F (18.3 C)
Relative Humidity: 96%
Pressure (altimeter): 29.99 in. Hg (1015 hPa)
ob: KSFB 150353Z AUTO 04003KT 10SM FEW075 SCT090 BKN110 19/18 A2999 RMK AO2 LTG DSNT W RAB17E26 SLP154 P0000 T01890183
cycle: 4

Station Type Date Time Source
KSFB TAF 2018/12/15 02:12 UTC NOAA

TAF
AMD KSFB 150211Z 1502/1524 VRB05KT P6SM VCSH BKN100 BKN150 BKN200
FM150400 20006KT P6SM SHRA VCTS SCT015 BKN030CB
TEMPO 1504/1508 2SM +TSRA BKN002 BKN035CB
FM151000 23006KT P6SM VCSH SCT007 BKN025
FM151300 27005KT P6SM SCT010 BKN020


Example: see airport list